sensor_id;sensor_type;location;lat;lon;timestamp;pressure;altitude;pressure_sealevel;temperature;humidity
13124;BME280;6627;50.920;12.050;2023-03-03T00:00:52;98930.94;;;12.61;46.22
13124;BME280;6627;50.920;12.050;2023-03-03T00:03:24;98794.81;;;11.73;47.23
13124;BME280;6627;50.920;12.050;2023-03-03T00:05:52;98903.03;;;12.47;46.38
13124;BME280;6627;50.920;12.050;2023-03-03T00:08:20;98719.41;;;11.39;46.75
13124;BME280;6627;50.920;12.050;2023-03-03T00:10:48;98966.50;;;12.96;45.34
13124;BME280;6627;50.920;12.050;2023-03-03T00:13:19;98871.56;;;12.01;47.10
13124;BME280;6627;50.920;12.050;2023-03-03T00:15:48;98826.13;;;11.93;46.84
13124;BME280;6627;50.920;12.050;2023-03-03T00:18:29;98731.88;;;11.26;47.98
13124;BME280;6627;50.920;12.050;2023-03-03T00:21:01;98842.81;;;12.00;46.94
13124;BME280;6627;50.920;12.050;2023-03-03T00:23:34;98878.19;;;11.95;47.76
13124;BME280;6627;50.920;12.050;2023-03-03T00:26:15;98907.59;;;12.37;46.71
13124;BME280;6627;50.920;12.050;2023-03-03T00:28:47;98738.94;;;11.13;48.26
13124;BME280;6627;50.920;12.050;2023-03-03T00:31:18;98675.97;;;10.66;49.09
13124;BME280;6627;50.920;12.050;2023-03-03T00:33:49;98785.06;;;11.35;48.25
13124;BME280;6627;50.920;12.050;2023-03-03T00:36:29;98797.53;;;11.36;48.44
13124;BME280;6627;50.920;12.050;2023-03-03T00:39:16;98623.44;;;10.53;48.09
13124;BME280;6627;50.920;12.050;2023-03-03T00:41:44;98914.28;;;11.95;48.24
13124;BME280;6627;50.920;12.050;2023-03-03T00:44:39;98867.34;;;11.95;47.09
13124;BME280;6627;50.920;12.050;2023-03-03T00:47:25;98810.53;;;11.62;47.25
13124;BME280;6627;50.920;12.050;2023-03-03T00:50:12;98971.00;;;12.33;47.43
13124;BME280;6627;50.920;12.050;2023-03-03T00:52:54;98713.09;;;10.79;48.73
13124;BME280;6627;50.920;12.050;2023-03-03T00:55:25;98676.78;;;10.39;49.42
13124;BME280;6627;50.920;12.050;2023-03-03T00:57:52;98992.31;;;12.40;47.10
13124;BME280;6627;50.920;12.050;2023-03-03T01:00:20;98981.81;;;12.47;46.83
13124;BME280;6627;50.920;12.050;2023-03-03T01:02:47;98932.72;;;12.43;46.09
13124;BME280;6627;50.920;12.050;2023-03-03T01:05:18;98656.47;;;10.92;47.24
13124;BME280;6627;50.920;12.050;2023-03-03T01:07:45;98822.59;;;11.56;47.52
13124;BME280;6627;50.920;12.050;2023-03-03T01:10:13;98878.13;;;12.08;46.67
13124;BME280;6627;50.920;12.050;2023-03-03T01:12:40;98977.38;;;12.96;45.26
13124;BME280;6627;50.920;12.050;2023-03-03T01:15:10;98657.91;;;10.75;48.04
13124;BME280;6627;50.920;12.050;2023-03-03T01:17:39;98695.63;;;10.58;49.32
13124;BME280;6627;50.920;12.050;2023-03-03T01:20:09;98661.34;;;10.40;49.42
13124;BME280;6627;50.920;12.050;2023-03-03T01:22:37;98747.69;;;10.82;49.56
13124;BME280;6627;50.920;12.050;2023-03-03T01:25:06;98762.44;;;11.04;48.10
13124;BME280;6627;50.920;12.050;2023-03-03T01:27:34;98816.69;;;11.40;48.13
13124;BME280;6627;50.920;12.050;2023-03-03T01:30:02;98854.16;;;11.52;48.00
13124;BME280;6627;50.920;12.050;2023-03-03T01:32:30;98723.72;;;10.62;49.16
13124;BME280;6627;50.920;12.050;2023-03-03T01:34:57;98748.19;;;10.71;48.71
13124;BME280;6627;50.920;12.050;2023-03-03T01:37:24;98745.50;;;10.71;49.08
13124;BME280;6627;50.920;12.050;2023-03-03T01:39:53;98569.13;;;9.67;49.36
13124;BME280;6627;50.920;12.050;2023-03-03T01:42:21;98740.59;;;10.73;48.76
13124;BME280;6627;50.920;12.050;2023-03-03T01:45:19;98825.88;;;11.17;47.95
13124;BME280;6627;50.920;12.050;2023-03-03T01:47:57;98681.16;;;10.21;49.40
13124;BME280;6627;50.920;12.050;2023-03-03T01:50:41;98848.47;;;11.26;48.63
13124;BME280;6627;50.920;12.050;2023-03-03T01:53:16;98802.75;;;11.19;47.94
13124;BME280;6627;50.920;12.050;2023-03-03T01:55:51;98645.97;;;9.94;49.65
13124;BME280;6627;50.920;12.050;2023-03-03T01:58:24;98706.22;;;10.13;49.70
13124;BME280;6627;50.920;12.050;2023-03-03T02:00:57;98847.47;;;10.94;49.91
13124;BME280;6627;50.920;12.050;2023-03-03T02:03:26;98786.22;;;10.79;48.92
13124;BME280;6627;50.920;12.050;2023-03-03T02:05:58;98739.59;;;10.55;49.02
13124;BME280;6627;50.920;12.050;2023-03-03T02:08:34;98882.09;;;11.39;48.34
13124;BME280;6627;50.920;12.050;2023-03-03T02:11:07;99049.16;;;12.72;46.02
13124;BME280;6627;50.920;12.050;2023-03-03T02:13:35;98909.97;;;11.80;47.24
13124;BME280;6627;50.920;12.050;2023-03-03T02:16:02;98827.88;;;11.39;47.17
13124;BME280;6627;50.920;12.050;2023-03-03T02:18:29;98757.75;;;10.82;48.87
13124;BME280;6627;50.920;12.050;2023-03-03T02:21:02;98767.34;;;11.02;47.90
13124;BME280;6627;50.920;12.050;2023-03-03T02:23:37;98720.75;;;10.50;49.32
13124;BME280;6627;50.920;12.050;2023-03-03T02:26:08;98933.09;;;11.92;47.56
13124;BME280;6627;50.920;12.050;2023-03-03T02:28:38;98903.25;;;11.78;47.29
13124;BME280;6627;50.920;12.050;2023-03-03T02:31:08;98844.31;;;11.56;47.20
13124;BME280;6627;50.920;12.050;2023-03-03T02:33:38;98699.88;;;10.64;48.21
13124;BME280;6627;50.920;12.050;2023-03-03T02:36:08;98707.88;;;10.69;48.13
13124;BME280;6627;50.920;12.050;2023-03-03T02:38:43;98776.00;;;10.76;48.58
13124;BME280;6627;50.920;12.050;2023-03-03T02:41:21;98700.25;;;10.44;48.71
13124;BME280;6627;50.920;12.050;2023-03-03T02:43:56;98873.03;;;11.57;47.26
13124;BME280;6627;50.920;12.050;2023-03-03T02:46:25;98554.09;;;9.61;49.25
13124;BME280;6627;50.920;12.050;2023-03-03T02:48:52;98854.88;;;11.44;47.65
13124;BME280;6627;50.920;12.050;2023-03-03T02:51:19;98898.75;;;11.87;47.04
13124;BME280;6627;50.920;12.050;2023-03-03T02:53:46;98759.66;;;10.81;47.68
13124;BME280;6627;50.920;12.050;2023-03-03T02:56:15;98732.34;;;10.37;49.19
13124;BME280;6627;50.920;12.050;2023-03-03T02:58:42;98791.34;;;10.67;49.06
13124;BME280;6627;50.920;12.050;2023-03-03T03:01:10;98654.09;;;9.94;49.18
13124;BME280;6627;50.920;12.050;2023-03-03T03:03:37;98869.03;;;11.13;48.31
13124;BME280;6627;50.920;12.050;2023-03-03T03:06:05;98837.81;;;10.88;49.05
13124;BME280;6627;50.920;12.050;2023-03-03T03:08:32;98893.91;;;11.84;46.12
13124;BME280;6627;50.920;12.050;2023-03-03T03:10:59;98760.03;;;10.75;47.79
13124;BME280;6627;50.920;12.050;2023-03-03T03:13:27;98712.31;;;10.38;48.39
13124;BME280;6627;50.920;12.050;2023-03-03T03:15:55;98724.94;;;10.56;48.01
13124;BME280;6627;50.920;12.050;2023-03-03T03:18:22;98907.19;;;11.58;47.39
13124;BME280;6627;50.920;12.050;2023-03-03T03:20:49;98788.94;;;10.79;47.77
13124;BME280;6627;50.920;12.050;2023-03-03T03:23:17;98667.31;;;10.09;48.11
13124;BME280;6627;50.920;12.050;2023-03-03T03:25:46;98754.03;;;10.37;48.91
13124;BME280;6627;50.920;12.050;2023-03-03T03:28:16;98769.59;;;10.72;47.60
13124;BME280;6627;50.920;12.050;2023-03-03T03:30:45;98791.06;;;10.82;47.55
13124;BME280;6627;50.920;12.050;2023-03-03T03:33:12;98887.22;;;11.26;47.86
13124;BME280;6627;50.920;12.050;2023-03-03T03:35:39;98774.78;;;10.96;46.93
13124;BME280;6627;50.920;12.050;2023-03-03T03:38:11;98823.03;;;11.35;46.16
13124;BME280;6627;50.920;12.050;2023-03-03T03:40:39;98831.88;;;11.27;46.44
13124;BME280;6627;50.920;12.050;2023-03-03T03:43:06;98524.25;;;9.80;47.28
13124;BME280;6627;50.920;12.050;2023-03-03T03:45:33;98727.16;;;10.68;47.33
13124;BME280;6627;50.920;12.050;2023-03-03T03:48:02;98727.75;;;10.37;48.75
13124;BME280;6627;50.920;12.050;2023-03-03T03:50:29;98812.41;;;11.25;47.01
13124;BME280;6627;50.920;12.050;2023-03-03T03:52:57;98903.25;;;11.78;46.39
13124;BME280;6627;50.920;12.050;2023-03-03T03:55:24;98898.63;;;11.92;45.96
13124;BME280;6627;50.920;12.050;2023-03-03T03:57:51;98915.59;;;11.98;45.46
13124;BME280;6627;50.920;12.050;2023-03-03T04:00:19;98750.81;;;11.03;46.36
13124;BME280;6627;50.920;12.050;2023-03-03T04:02:46;98882.63;;;11.91;45.68
13124;BME280;6627;50.920;12.050;2023-03-03T04:05:15;98771.69;;;11.53;45.02
13124;BME280;6627;50.920;12.050;2023-03-03T04:07:42;98590.16;;;10.11;47.83
13124;BME280;6627;50.920;12.050;2023-03-03T04:10:10;98508.47;;;9.13;49.46
13124;BME280;6627;50.920;12.050;2023-03-03T04:12:37;98629.25;;;9.92;48.32
13124;BME280;6627;50.920;12.050;2023-03-03T04:15:07;98720.22;;;10.48;47.87
13124;BME280;6627;50.920;12.050;2023-03-03T04:17:35;98765.19;;;10.76;47.93
13124;BME280;6627;50.920;12.050;2023-03-03T04:20:04;98641.28;;;10.13;47.71
13124;BME280;6627;50.920;12.050;2023-03-03T04:22:33;98607.66;;;9.73;48.46
13124;BME280;6627;50.920;12.050;2023-03-03T04:25:01;98604.53;;;9.52;49.36
13124;BME280;6627;50.920;12.050;2023-03-03T04:27:30;98821.63;;;10.69;49.04
13124;BME280;6627;50.920;12.050;2023-03-03T04:29:57;98828.06;;;11.01;47.32
13124;BME280;6627;50.920;12.050;2023-03-03T04:32:24;98932.00;;;11.65;46.99
13124;BME280;6627;50.920;12.050;2023-03-03T04:34:52;98667.63;;;10.21;47.38
13124;BME280;6627;50.920;12.050;2023-03-03T04:37:19;98568.66;;;9.46;48.15
13124;BME280;6627;50.920;12.050;2023-03-03T04:39:47;98793.75;;;10.55;48.09
13124;BME280;6627;50.920;12.050;2023-03-03T04:42:14;98736.34;;;10.25;48.41
13124;BME280;6627;50.920;12.050;2023-03-03T04:44:42;98850.88;;;11.00;47.60
13124;BME280;6627;50.920;12.050;2023-03-03T04:47:09;98772.47;;;10.62;47.91
13124;BME280;6627;50.920;12.050;2023-03-03T04:49:37;98772.88;;;10.42;48.17
13124;BME280;6627;50.920;12.050;2023-03-03T04:52:04;98723.56;;;10.12;48.28
13124;BME280;6627;50.920;12.050;2023-03-03T04:54:31;98621.81;;;9.70;48.09
13124;BME280;6627;50.920;12.050;2023-03-03T04:57:00;98715.69;;;10.29;47.19
13124;BME280;6627;50.920;12.050;2023-03-03T04:59:27;98778.25;;;10.28;49.06
13124;BME280;6627;50.920;12.050;2023-03-03T05:01:54;98832.00;;;10.95;46.78
13124;BME280;6627;50.920;12.050;2023-03-03T05:04:21;98729.69;;;10.18;48.28
13124;BME280;6627;50.920;12.050;2023-03-03T05:06:48;98708.44;;;10.11;47.88
13124;BME280;6627;50.920;12.050;2023-03-03T05:09:15;98772.34;;;10.40;47.91
13124;BME280;6627;50.920;12.050;2023-03-03T05:11:42;98698.22;;;9.75;49.38
13124;BME280;6627;50.920;12.050;2023-03-03T05:14:11;98778.47;;;10.31;48.50
13124;BME280;6627;50.920;12.050;2023-03-03T05:16:38;98639.94;;;9.37;49.33
13124;BME280;6627;50.920;12.050;2023-03-03T05:19:06;98806.13;;;10.28;49.31
13124;BME280;6627;50.920;12.050;2023-03-03T05:21:33;98733.13;;;9.91;49.13
13124;BME280;6627;50.920;12.050;2023-03-03T05:24:00;98854.34;;;10.59;48.83
13124;BME280;6627;50.920;12.050;2023-03-03T05:26:27;98651.75;;;9.41;49.30
13124;BME280;6627;50.920;12.050;2023-03-03T05:28:54;98717.13;;;9.62;49.74
13124;BME280;6627;50.920;12.050;2023-03-03T05:31:22;98706.09;;;9.58;49.85
13124;BME280;6627;50.920;12.050;2023-03-03T05:33:52;98676.91;;;9.22;50.80
13124;BME280;6627;50.920;12.050;2023-03-03T05:36:19;98938.53;;;10.76;48.80
13124;BME280;6627;50.920;12.050;2023-03-03T05:38:46;98898.81;;;10.85;47.73
13124;BME280;6627;50.920;12.050;2023-03-03T05:41:15;98821.28;;;10.43;47.63
13124;BME280;6627;50.920;12.050;2023-03-03T05:43:43;98918.03;;;11.03;47.27
13124;BME280;6627;50.920;12.050;2023-03-03T05:46:11;98852.94;;;10.75;47.05
13124;BME280;6627;50.920;12.050;2023-03-03T05:48:39;98595.13;;;9.17;49.00
13124;BME280;6627;50.920;12.050;2023-03-03T05:51:07;98926.22;;;10.98;48.12
13124;BME280;6627;50.920;12.050;2023-03-03T05:53:34;98554.59;;;8.65;49.87
13124;BME280;6627;50.920;12.050;2023-03-03T05:56:02;98853.97;;;10.14;49.71
13124;BME280;6627;50.920;12.050;2023-03-03T05:58:29;98748.59;;;9.71;49.21
13124;BME280;6627;50.920;12.050;2023-03-03T06:00:57;98661.50;;;9.04;50.58
13124;BME280;6627;50.920;12.050;2023-03-03T06:03:24;98624.41;;;8.53;51.54
13124;BME280;6627;50.920;12.050;2023-03-03T06:05:52;98929.47;;;10.34;49.77
13124;BME280;6627;50.920;12.050;2023-03-03T06:08:20;98969.59;;;10.98;47.90
13124;BME280;6627;50.920;12.050;2023-03-03T06:10:47;98900.88;;;10.61;48.42
13124;BME280;6627;50.920;12.050;2023-03-03T06:13:14;98621.72;;;8.91;50.01
13124;BME280;6627;50.920;12.050;2023-03-03T06:15:41;98916.09;;;10.57;48.66
13124;BME280;6627;50.920;12.050;2023-03-03T06:18:09;98953.41;;;10.93;48.07
13124;BME280;6627;50.920;12.050;2023-03-03T06:20:36;98790.63;;;10.15;47.95
13124;BME280;6627;50.920;12.050;2023-03-03T06:23:06;98961.63;;;11.20;46.58
13124;BME280;6627;50.920;12.050;2023-03-03T06:25:33;98683.13;;;9.74;47.35
13124;BME280;6627;50.920;12.050;2023-03-03T06:28:00;99383.81;;;13.26;45.80
13124;BME280;6627;50.920;12.050;2023-03-03T06:30:28;98955.91;;;11.35;46.29
13124;BME280;6627;50.920;12.050;2023-03-03T06:32:55;98890.22;;;11.11;46.11
13124;BME280;6627;50.920;12.050;2023-03-03T06:35:22;98858.34;;;10.61;47.51
13124;BME280;6627;50.920;12.050;2023-03-03T06:37:50;98894.31;;;10.95;46.71
13124;BME280;6627;50.920;12.050;2023-03-03T06:40:18;99028.19;;;12.00;45.33
13124;BME280;6627;50.920;12.050;2023-03-03T06:42:45;98977.13;;;11.61;45.57
13124;BME280;6627;50.920;12.050;2023-03-03T06:45:13;98884.09;;;11.19;45.69
13124;BME280;6627;50.920;12.050;2023-03-03T06:47:40;98856.78;;;10.88;46.87
13124;BME280;6627;50.920;12.050;2023-03-03T06:50:10;98941.75;;;11.39;46.44
13124;BME280;6627;50.920;12.050;2023-03-03T06:52:38;98786.66;;;10.26;48.07
13124;BME280;6627;50.920;12.050;2023-03-03T06:55:15;98926.97;;;11.03;47.48
13124;BME280;6627;50.920;12.050;2023-03-03T06:57:45;98768.28;;;10.23;47.65
13124;BME280;6627;50.920;12.050;2023-03-03T07:00:18;98810.75;;;10.28;48.00
13124;BME280;6627;50.920;12.050;2023-03-03T07:02:46;98709.00;;;9.43;49.19
13124;BME280;6627;50.920;12.050;2023-03-03T07:05:16;98814.88;;;9.88;49.72
13124;BME280;6627;50.920;12.050;2023-03-03T07:07:44;98764.81;;;9.71;49.69
13124;BME280;6627;50.920;12.050;2023-03-03T07:10:22;98817.13;;;9.99;49.47
13124;BME280;6627;50.920;12.050;2023-03-03T07:12:52;98833.94;;;10.15;48.73
13124;BME280;6627;50.920;12.050;2023-03-03T07:15:23;98958.97;;;11.01;47.34
13124;BME280;6627;50.920;12.050;2023-03-03T07:17:55;98907.63;;;10.77;47.39
13124;BME280;6627;50.920;12.050;2023-03-03T07:20:32;98845.78;;;10.19;48.90
13124;BME280;6627;50.920;12.050;2023-03-03T07:23:08;98968.66;;;10.89;48.09
13124;BME280;6627;50.920;12.050;2023-03-03T07:25:42;98923.56;;;10.65;47.87
13124;BME280;6627;50.920;12.050;2023-03-03T07:28:22;98772.84;;;9.76;48.85
13124;BME280;6627;50.920;12.050;2023-03-03T07:30:50;98845.22;;;9.84;50.18
13124;BME280;6627;50.920;12.050;2023-03-03T07:33:24;98877.59;;;10.08;49.71
13124;BME280;6627;50.920;12.050;2023-03-03T07:35:55;98997.13;;;11.05;47.85
13124;BME280;6627;50.920;12.050;2023-03-03T07:38:29;98812.00;;;9.98;48.10
13124;BME280;6627;50.920;12.050;2023-03-03T07:40:59;98852.94;;;10.10;48.45
13124;BME280;6627;50.920;12.050;2023-03-03T07:43:36;98809.53;;;9.45;50.15
13124;BME280;6627;50.920;12.050;2023-03-03T07:46:22;98704.50;;;8.81;50.86
13124;BME280;6627;50.920;12.050;2023-03-03T07:48:53;98848.13;;;9.69;49.67
13124;BME280;6627;50.920;12.050;2023-03-03T07:51:24;98812.31;;;9.40;49.97
13124;BME280;6627;50.920;12.050;2023-03-03T07:54:00;99012.56;;;10.53;49.22
13124;BME280;6627;50.920;12.050;2023-03-03T07:56:37;98719.72;;;8.72;50.81
13124;BME280;6627;50.920;12.050;2023-03-03T07:59:20;99034.66;;;10.79;47.90
13124;BME280;6627;50.920;12.050;2023-03-03T08:01:52;98875.41;;;10.10;47.30
13124;BME280;6627;50.920;12.050;2023-03-03T08:04:25;98700.69;;;8.82;49.28
13124;BME280;6627;50.920;12.050;2023-03-03T08:06:56;98975.03;;;10.46;48.17
13124;BME280;6627;50.920;12.050;2023-03-03T08:09:47;98930.16;;;10.21;48.27
13124;BME280;6627;50.920;12.050;2023-03-03T08:12:36;98715.66;;;8.94;49.57
13124;BME280;6627;50.920;12.050;2023-03-03T08:15:22;98841.72;;;9.65;49.17
13124;BME280;6627;50.920;12.050;2023-03-03T08:17:51;98729.16;;;8.94;49.67
13124;BME280;6627;50.920;12.050;2023-03-03T08:20:51;98834.59;;;9.50;49.75
13124;BME280;6627;50.920;12.050;2023-03-03T08:23:20;98720.31;;;8.88;49.92
13124;BME280;6627;50.920;12.050;2023-03-03T08:25:50;98927.81;;;9.96;49.78
13124;BME280;6627;50.920;12.050;2023-03-03T08:28:19;98888.66;;;9.74;49.62
13124;BME280;6627;50.920;12.050;2023-03-03T08:30:48;98747.56;;;8.92;49.94
13124;BME280;6627;50.920;12.050;2023-03-03T08:33:17;98699.34;;;8.61;49.66
13124;BME280;6627;50.920;12.050;2023-03-03T08:35:45;98735.19;;;8.43;51.10
13124;BME280;6627;50.920;12.050;2023-03-03T08:38:17;98741.13;;;8.88;49.53
13124;BME280;6627;50.920;12.050;2023-03-03T08:40:44;98877.69;;;9.42;49.81
13124;BME280;6627;50.920;12.050;2023-03-03T08:43:13;98892.25;;;9.46;49.82
13124;BME280;6627;50.920;12.050;2023-03-03T08:45:44;98716.72;;;8.50;50.60
13124;BME280;6627;50.920;12.050;2023-03-03T08:48:12;98743.44;;;8.75;50.21
13124;BME280;6627;50.920;12.050;2023-03-03T08:50:40;98747.09;;;8.84;49.65
13124;BME280;6627;50.920;12.050;2023-03-03T08:53:09;98774.47;;;8.78;50.23
13124;BME280;6627;50.920;12.050;2023-03-03T08:55:36;98802.06;;;8.94;49.93
13124;BME280;6627;50.920;12.050;2023-03-03T08:58:03;98792.94;;;8.90;50.02
13124;BME280;6627;50.920;12.050;2023-03-03T09:00:31;98916.34;;;9.66;48.81
13124;BME280;6627;50.920;12.050;2023-03-03T09:02:59;98940.53;;;9.76;48.89
13124;BME280;6627;50.920;12.050;2023-03-03T09:05:28;98847.41;;;9.45;48.00
13124;BME280;6627;50.920;12.050;2023-03-03T09:07:56;98749.75;;;8.66;49.31
13124;BME280;6627;50.920;12.050;2023-03-03T09:10:26;98940.06;;;9.69;48.88
13124;BME280;6627;50.920;12.050;2023-03-03T09:12:59;98954.69;;;9.92;48.46
13124;BME280;6627;50.920;12.050;2023-03-03T09:15:30;98996.44;;;10.05;48.41
13124;BME280;6627;50.920;12.050;2023-03-03T09:18:09;99086.94;;;10.79;47.18
13124;BME280;6627;50.920;12.050;2023-03-03T09:20:43;98970.44;;;10.47;46.34
13124;BME280;6627;50.920;12.050;2023-03-03T09:23:29;98882.06;;;10.18;45.99
13124;BME280;6627;50.920;12.050;2023-03-03T09:26:22;98861.66;;;9.88;47.25
13124;BME280;6627;50.920;12.050;2023-03-03T09:28:52;98838.47;;;9.82;46.73
13124;BME280;6627;50.920;12.050;2023-03-03T09:31:26;99025.16;;;10.81;46.40
13124;BME280;6627;50.920;12.050;2023-03-03T09:33:53;98905.69;;;9.94;47.45
13124;BME280;6627;50.920;12.050;2023-03-03T09:36:27;98835.47;;;9.46;48.33
13124;BME280;6627;50.920;12.050;2023-03-03T09:38:56;98757.56;;;8.91;49.09
13124;BME280;6627;50.920;12.050;2023-03-03T09:41:46;98866.56;;;9.67;48.16
13124;BME280;6627;50.920;12.050;2023-03-03T09:47:40;98865.78;;;9.43;49.22
13124;BME280;6627;50.920;12.050;2023-03-03T09:50:27;98850.03;;;9.50;48.43
13124;BME280;6627;50.920;12.050;2023-03-03T09:53:27;98958.56;;;10.05;47.86
13124;BME280;6627;50.920;12.050;2023-03-03T09:56:12;98956.34;;;10.07;47.63
13124;BME280;6627;50.920;12.050;2023-03-03T09:58:58;98905.31;;;9.81;47.62
13124;BME280;6627;50.920;12.050;2023-03-03T10:01:44;98906.47;;;9.94;46.79
13124;BME280;6627;50.920;12.050;2023-03-03T10:05:03;98805.41;;;9.52;46.53
13124;BME280;6627;50.920;12.050;2023-03-03T10:07:44;98603.34;;;8.07;48.83
13124;BME280;6627;50.920;12.050;2023-03-03T10:10:35;98862.13;;;9.33;48.40
13124;BME280;6627;50.920;12.050;2023-03-03T10:13:24;99001.03;;;10.28;47.37
13124;BME280;6627;50.920;12.050;2023-03-03T10:16:18;98902.09;;;9.79;47.77
13124;BME280;6627;50.920;12.050;2023-03-03T10:18:57;98925.88;;;9.58;49.05
13124;BME280;6627;50.920;12.050;2023-03-03T10:21:35;98814.69;;;9.03;49.01
13124;BME280;6627;50.920;12.050;2023-03-03T10:24:23;99026.66;;;10.36;47.56
13124;BME280;6627;50.920;12.050;2023-03-03T10:27:15;98946.72;;;10.01;47.05
13124;BME280;6627;50.920;12.050;2023-03-03T10:29:59;98899.22;;;10.08;45.66
13124;BME280;6627;50.920;12.050;2023-03-03T10:32:41;99054.88;;;10.86;46.44
13124;BME280;6627;50.920;12.050;2023-03-03T10:35:34;98939.63;;;10.24;46.34
13124;BME280;6627;50.920;12.050;2023-03-03T10:38:22;98934.78;;;10.21;46.77
13124;BME280;6627;50.920;12.050;2023-03-03T10:41:08;98907.34;;;9.90;47.06
13124;BME280;6627;50.920;12.050;2023-03-03T10:43:54;98946.19;;;10.18;46.45
13124;BME280;6627;50.920;12.050;2023-03-03T10:46:54;99087.31;;;11.24;45.05
13124;BME280;6627;50.920;12.050;2023-03-03T10:49:46;98998.38;;;10.61;45.55
13124;BME280;6627;50.920;12.050;2023-03-03T10:52:31;99215.38;;;11.92;44.40
13124;BME280;6627;50.920;12.050;2023-03-03T10:55:29;98749.69;;;9.70;45.30
13124;BME280;6627;50.920;12.050;2023-03-03T10:58:22;98854.56;;;9.73;46.92
13124;BME280;6627;50.920;12.050;2023-03-03T11:01:06;99006.84;;;10.73;45.68
13124;BME280;6627;50.920;12.050;2023-03-03T11:04:18;99068.44;;;11.52;43.94
13124;BME280;6627;50.920;12.050;2023-03-03T11:06:55;99196.50;;;11.49;45.09
13124;BME280;6627;50.920;12.050;2023-03-03T11:09:41;99465.84;;;13.74;41.64
13124;BME280;6627;50.920;12.050;2023-03-03T11:12:28;98853.84;;;10.84;43.38
13124;BME280;6627;50.920;12.050;2023-03-03T11:15:22;99048.03;;;11.82;42.92
13124;BME280;6627;50.920;12.050;2023-03-03T11:18:14;98772.53;;;10.29;44.45
13124;BME280;6627;50.920;12.050;2023-03-03T11:20:54;98915.38;;;10.98;44.17
13124;BME280;6627;50.920;12.050;2023-03-03T11:23:57;98913.69;;;11.02;43.76
13124;BME280;6627;50.920;12.050;2023-03-03T11:26:49;98954.88;;;11.31;43.26
13124;BME280;6627;50.920;12.050;2023-03-03T11:29:48;98691.38;;;9.64;45.78
13124;BME280;6627;50.920;12.050;2023-03-03T11:32:26;99162.72;;;12.34;43.23
13124;BME280;6627;50.920;12.050;2023-03-03T11:35:16;99297.34;;;13.36;42.29
13124;BME280;6627;50.920;12.050;2023-03-03T11:37:54;99113.38;;;12.68;41.48
13124;BME280;6627;50.920;12.050;2023-03-03T11:40:26;99045.84;;;12.25;41.87
13124;BME280;6627;50.920;12.050;2023-03-03T11:43:03;99339.69;;;13.43;41.41
13124;BME280;6627;50.920;12.050;2023-03-03T11:45:42;98746.00;;;10.73;43.40
13124;BME280;6627;50.920;12.050;2023-03-03T11:48:17;98835.81;;;10.94;44.03
13124;BME280;6627;50.920;12.050;2023-03-03T11:50:57;99016.91;;;12.07;42.32
13124;BME280;6627;50.920;12.050;2023-03-03T11:53:38;98756.84;;;10.59;43.86
13124;BME280;6627;50.920;12.050;2023-03-03T11:56:21;98850.38;;;11.25;42.91
13124;BME280;6627;50.920;12.050;2023-03-03T11:59:03;98963.72;;;12.06;42.04
13124;BME280;6627;50.920;12.050;2023-03-03T12:01:41;98901.97;;;11.48;43.05
13124;BME280;6627;50.920;12.050;2023-03-03T12:04:14;99118.75;;;12.96;41.46
13124;BME280;6627;50.920;12.050;2023-03-03T12:07:04;98908.44;;;12.02;41.50
13124;BME280;6627;50.920;12.050;2023-03-03T12:09:47;98913.59;;;11.90;42.15
13124;BME280;6627;50.920;12.050;2023-03-03T12:12:23;98594.41;;;10.31;42.85
13124;BME280;6627;50.920;12.050;2023-03-03T12:15:05;99054.94;;;12.57;42.22
13124;BME280;6627;50.920;12.050;2023-03-03T12:18:09;98991.72;;;12.65;40.81
13124;BME280;6627;50.920;12.050;2023-03-03T12:20:51;98772.63;;;11.34;42.40
13124;BME280;6627;50.920;12.050;2023-03-03T12:23:48;98966.41;;;12.20;42.43
13124;BME280;6627;50.920;12.050;2023-03-03T12:26:31;98946.31;;;12.07;42.59
13124;BME280;6627;50.920;12.050;2023-03-03T12:29:12;98945.06;;;12.27;41.37
13124;BME280;6627;50.920;12.050;2023-03-03T12:31:54;99003.75;;;12.50;41.45
13124;BME280;6627;50.920;12.050;2023-03-03T12:34:33;99152.81;;;13.52;40.41
13124;BME280;6627;50.920;12.050;2023-03-03T12:37:22;99017.34;;;12.73;41.21
13124;BME280;6627;50.920;12.050;2023-03-03T12:40:06;99164.31;;;13.49;40.91
13124;BME280;6627;50.920;12.050;2023-03-03T12:42:52;99111.94;;;13.43;40.24
13124;BME280;6627;50.920;12.050;2023-03-03T12:45:36;98861.81;;;12.22;41.07
13124;BME280;6627;50.920;12.050;2023-03-03T12:48:18;98774.47;;;11.61;41.98
13124;BME280;6627;50.920;12.050;2023-03-03T12:50:56;98750.31;;;11.37;42.52
13124;BME280;6627;50.920;12.050;2023-03-03T12:53:48;99138.69;;;13.50;40.87
13124;BME280;6627;50.920;12.050;2023-03-03T12:56:27;98801.19;;;11.91;41.19
13124;BME280;6627;50.920;12.050;2023-03-03T12:59:04;99086.75;;;13.15;41.53
13124;BME280;6627;50.920;12.050;2023-03-03T13:01:52;98927.22;;;12.57;41.15
13124;BME280;6627;50.920;12.050;2023-03-03T13:04:35;98992.47;;;12.79;41.68
13124;BME280;6627;50.920;12.050;2023-03-03T13:07:13;99123.97;;;13.73;40.16
13124;BME280;6627;50.920;12.050;2023-03-03T13:10:02;98808.38;;;12.09;41.37
13124;BME280;6627;50.920;12.050;2023-03-03T13:12:42;98967.44;;;12.69;42.09
13124;BME280;6627;50.920;12.050;2023-03-03T13:15:19;98888.19;;;12.08;43.01
13124;BME280;6627;50.920;12.050;2023-03-03T13:18:00;98969.69;;;12.67;42.22
13124;BME280;6627;50.920;12.050;2023-03-03T13:20:40;98984.31;;;12.79;41.82
13124;BME280;6627;50.920;12.050;2023-03-03T13:23:30;99040.28;;;13.25;40.92
13124;BME280;6627;50.920;12.050;2023-03-03T13:26:09;98712.69;;;11.58;41.88
13124;BME280;6627;50.920;12.050;2023-03-03T13:28:55;98958.09;;;12.83;40.69
13124;BME280;6627;50.920;12.050;2023-03-03T13:31:32;98960.59;;;12.71;40.89
13124;BME280;6627;50.920;12.050;2023-03-03T13:34:01;98924.16;;;12.72;40.91
13124;BME280;6627;50.920;12.050;2023-03-03T13:36:36;99126.69;;;13.73;40.50
13124;BME280;6627;50.920;12.050;2023-03-03T13:39:13;98850.81;;;12.50;40.81
13124;BME280;6627;50.920;12.050;2023-03-03T13:41:49;98783.09;;;12.00;41.77
13124;BME280;6627;50.920;12.050;2023-03-03T13:44:24;99014.78;;;13.44;39.99